sensor_id;sensor_type;location;lat;lon;timestamp;P1;durP1;ratioP1;P2;durP2;ratioP2
10717;SDS011;13513;42.700;23.124;2024-03-02T00:01:20;32.38;;;21.00;;
10717;SDS011;13513;42.700;23.124;2024-03-02T00:03:48;34.33;;;21.67;;
10717;SDS011;13513;42.700;23.124;2024-03-02T00:06:18;31.87;;;20.87;;
10717;SDS011;13513;42.700;23.124;2024-03-02T00:08:47;33.97;;;20.13;;
10717;SDS011;13513;42.700;23.124;2024-03-02T00:11:15;31.43;;;21.30;;
10717;SDS011;13513;42.700;23.124;2024-03-02T00:13:44;33.45;;;21.00;;
10717;SDS011;13513;42.700;23.124;2024-03-02T00:16:14;34.40;;;21.20;;
10717;SDS011;13513;42.700;23.124;2024-03-02T00:18:43;32.47;;;19.90;;
10717;SDS011;13513;42.700;23.124;2024-03-02T00:21:10;31.30;;;20.85;;
10717;SDS011;13513;42.700;23.124;2024-03-02T00:23:40;30.37;;;19.93;;
10717;SDS011;13513;42.700;23.124;2024-03-02T00:26:11;31.10;;;19.70;;
10717;SDS011;13513;42.700;23.124;2024-03-02T00:28:39;31.23;;;19.85;;
10717;SDS011;13513;42.700;23.124;2024-03-02T00:31:12;35.23;;;20.57;;
10717;SDS011;13513;42.700;23.124;2024-03-02T00:33:41;29.53;;;20.47;;
10717;SDS011;13513;42.700;23.124;2024-03-02T00:36:10;29.13;;;18.67;;
10717;SDS011;13513;42.700;23.124;2024-03-02T00:38:46;30.43;;;19.53;;
10717;SDS011;13513;42.700;23.124;2024-03-02T00:41:29;30.23;;;20.30;;
10717;SDS011;13513;42.700;23.124;2024-03-02T00:44:09;30.40;;;19.97;;
10717;SDS011;13513;42.700;23.124;2024-03-02T00:46:35;31.53;;;19.43;;
10717;SDS011;13513;42.700;23.124;2024-03-02T00:49:05;29.43;;;19.03;;
10717;SDS011;13513;42.700;23.124;2024-03-02T00:51:40;32.93;;;18.67;;
10717;SDS011;13513;42.700;23.124;2024-03-02T00:54:09;31.93;;;19.70;;
10717;SDS011;13513;42.700;23.124;2024-03-02T00:56:37;29.57;;;19.43;;
10717;SDS011;13513;42.700;23.124;2024-03-02T00:59:04;34.45;;;19.73;;
10717;SDS011;13513;42.700;23.124;2024-03-02T01:01:32;30.70;;;19.70;;
10717;SDS011;13513;42.700;23.124;2024-03-02T01:04:00;30.20;;;18.85;;
10717;SDS011;13513;42.700;23.124;2024-03-02T01:06:27;31.63;;;20.10;;
10717;SDS011;13513;42.700;23.124;2024-03-02T01:08:54;30.07;;;18.90;;
10717;SDS011;13513;42.700;23.124;2024-03-02T01:11:22;31.68;;;19.90;;
10717;SDS011;13513;42.700;23.124;2024-03-02T01:13:50;30.87;;;20.00;;
10717;SDS011;13513;42.700;23.124;2024-03-02T01:16:18;29.90;;;19.95;;
10717;SDS011;13513;42.700;23.124;2024-03-02T01:18:45;32.70;;;20.62;;
10717;SDS011;13513;42.700;23.124;2024-03-02T01:21:13;31.73;;;21.20;;
10717;SDS011;13513;42.700;23.124;2024-03-02T01:23:42;33.30;;;21.47;;
10717;SDS011;13513;42.700;23.124;2024-03-02T01:26:10;35.78;;;20.17;;
10717;SDS011;13513;42.700;23.124;2024-03-02T01:28:38;34.27;;;20.97;;
10717;SDS011;13513;42.700;23.124;2024-03-02T01:31:05;35.83;;;22.10;;
10717;SDS011;13513;42.700;23.124;2024-03-02T01:33:33;37.85;;;21.87;;
10717;SDS011;13513;42.700;23.124;2024-03-02T01:36:02;39.00;;;22.48;;
10717;SDS011;13513;42.700;23.124;2024-03-02T01:38:30;35.50;;;22.13;;
10717;SDS011;13513;42.700;23.124;2024-03-02T01:40:57;37.35;;;22.07;;
10717;SDS011;13513;42.700;23.124;2024-03-02T01:43:24;39.15;;;24.67;;
10717;SDS011;13513;42.700;23.124;2024-03-02T01:45:52;40.30;;;24.07;;
10717;SDS011;13513;42.700;23.124;2024-03-02T01:48:19;36.43;;;24.10;;
10717;SDS011;13513;42.700;23.124;2024-03-02T01:50:47;41.18;;;23.90;;
10717;SDS011;13513;42.700;23.124;2024-03-02T01:53:14;38.78;;;22.58;;
10717;SDS011;13513;42.700;23.124;2024-03-02T01:55:44;34.80;;;23.10;;
10717;SDS011;13513;42.700;23.124;2024-03-02T01:58:11;38.13;;;23.13;;
10717;SDS011;13513;42.700;23.124;2024-03-02T02:00:40;39.47;;;23.23;;
10717;SDS011;13513;42.700;23.124;2024-03-02T02:03:08;36.13;;;23.27;;
10717;SDS011;13513;42.700;23.124;2024-03-02T02:05:37;35.58;;;22.65;;
10717;SDS011;13513;42.700;23.124;2024-03-02T02:08:04;37.23;;;23.57;;
10717;SDS011;13513;42.700;23.124;2024-03-02T02:10:32;37.97;;;22.90;;
10717;SDS011;13513;42.700;23.124;2024-03-02T02:13:00;32.20;;;21.85;;
10717;SDS011;13513;42.700;23.124;2024-03-02T02:15:28;35.77;;;22.40;;
10717;SDS011;13513;42.700;23.124;2024-03-02T02:17:57;35.53;;;23.03;;
10717;SDS011;13513;42.700;23.124;2024-03-02T02:20:26;37.70;;;23.42;;
10717;SDS011;13513;42.700;23.124;2024-03-02T02:25:27;40.73;;;23.65;;
10717;SDS011;13513;42.700;23.124;2024-03-02T02:27:55;37.60;;;22.80;;
10717;SDS011;13513;42.700;23.124;2024-03-02T02:30:27;35.95;;;23.10;;
10717;SDS011;13513;42.700;23.124;2024-03-02T02:32:58;34.20;;;21.90;;
10717;SDS011;13513;42.700;23.124;2024-03-02T02:35:25;37.23;;;23.27;;
10717;SDS011;13513;42.700;23.124;2024-03-02T02:37:54;38.47;;;23.50;;
10717;SDS011;13513;42.700;23.124;2024-03-02T02:40:22;37.00;;;22.47;;
10717;SDS011;13513;42.700;23.124;2024-03-02T02:42:50;39.18;;;23.22;;
10717;SDS011;13513;42.700;23.124;2024-03-02T02:45:17;33.87;;;23.03;;
10717;SDS011;13513;42.700;23.124;2024-03-02T02:47:45;36.20;;;23.25;;
10717;SDS011;13513;42.700;23.124;2024-03-02T02:50:12;38.87;;;24.27;;
10717;SDS011;13513;42.700;23.124;2024-03-02T02:52:42;36.57;;;24.60;;
10717;SDS011;13513;42.700;23.124;2024-03-02T02:55:10;37.17;;;23.87;;
10717;SDS011;13513;42.700;23.124;2024-03-02T02:57:41;36.10;;;23.20;;
10717;SDS011;13513;42.700;23.124;2024-03-02T03:00:12;38.70;;;23.27;;
10717;SDS011;13513;42.700;23.124;2024-03-02T03:02:43;39.13;;;23.53;;
10717;SDS011;13513;42.700;23.124;2024-03-02T03:05:13;39.17;;;24.53;;
10717;SDS011;13513;42.700;23.124;2024-03-02T03:07:41;40.70;;;23.87;;
10717;SDS011;13513;42.700;23.124;2024-03-02T03:10:10;38.07;;;24.10;;
10717;SDS011;13513;42.700;23.124;2024-03-02T03:12:42;35.63;;;22.70;;
10717;SDS011;13513;42.700;23.124;2024-03-02T03:15:10;40.05;;;23.85;;
10717;SDS011;13513;42.700;23.124;2024-03-02T03:17:38;37.10;;;24.18;;
10717;SDS011;13513;42.700;23.124;2024-03-02T03:20:07;34.03;;;23.00;;
10717;SDS011;13513;42.700;23.124;2024-03-02T03:22:38;38.35;;;23.42;;
10717;SDS011;13513;42.700;23.124;2024-03-02T03:25:07;38.02;;;23.95;;
10717;SDS011;13513;42.700;23.124;2024-03-02T03:27:34;38.10;;;23.30;;
10717;SDS011;13513;42.700;23.124;2024-03-02T03:30:04;37.70;;;24.75;;
10717;SDS011;13513;42.700;23.124;2024-03-02T03:32:33;36.70;;;22.27;;
10717;SDS011;13513;42.700;23.124;2024-03-02T03:35:00;37.47;;;23.97;;
10717;SDS011;13513;42.700;23.124;2024-03-02T03:37:30;38.00;;;24.17;;
10717;SDS011;13513;42.700;23.124;2024-03-02T03:40:00;36.33;;;23.73;;
10717;SDS011;13513;42.700;23.124;2024-03-02T03:42:37;39.67;;;22.93;;
10717;SDS011;13513;42.700;23.124;2024-03-02T03:45:06;39.98;;;23.62;;
10717;SDS011;13513;42.700;23.124;2024-03-02T03:47:34;39.17;;;23.17;;
10717;SDS011;13513;42.700;23.124;2024-03-02T03:50:02;34.18;;;22.37;;
10717;SDS011;13513;42.700;23.124;2024-03-02T03:52:31;36.73;;;24.25;;
10717;SDS011;13513;42.700;23.124;2024-03-02T03:54:59;37.90;;;23.12;;
10717;SDS011;13513;42.700;23.124;2024-03-02T03:57:28;35.58;;;22.90;;
10717;SDS011;13513;42.700;23.124;2024-03-02T03:59:55;38.13;;;24.32;;
10717;SDS011;13513;42.700;23.124;2024-03-02T04:02:23;37.80;;;22.45;;
10717;SDS011;13513;42.700;23.124;2024-03-02T04:04:51;36.23;;;23.33;;
10717;SDS011;13513;42.700;23.124;2024-03-02T04:07:20;38.58;;;24.02;;
10717;SDS011;13513;42.700;23.124;2024-03-02T04:09:47;41.85;;;24.27;;
10717;SDS011;13513;42.700;23.124;2024-03-02T04:12:15;36.63;;;23.93;;
10717;SDS011;13513;42.700;23.124;2024-03-02T04:14:44;37.77;;;24.50;;
10717;SDS011;13513;42.700;23.124;2024-03-02T04:17:11;44.35;;;23.22;;
10717;SDS011;13513;42.700;23.124;2024-03-02T04:19:39;39.23;;;23.42;;
10717;SDS011;13513;42.700;23.124;2024-03-02T04:22:06;38.63;;;23.37;;
10717;SDS011;13513;42.700;23.124;2024-03-02T04:24:34;39.27;;;24.10;;
10717;SDS011;13513;42.700;23.124;2024-03-02T04:27:02;38.63;;;23.70;;
10717;SDS011;13513;42.700;23.124;2024-03-02T04:29:30;38.93;;;24.83;;
10717;SDS011;13513;42.700;23.124;2024-03-02T04:31:58;38.73;;;24.00;;
10717;SDS011;13513;42.700;23.124;2024-03-02T04:34:25;39.18;;;23.47;;
10717;SDS011;13513;42.700;23.124;2024-03-02T04:36:52;40.43;;;23.90;;
10717;SDS011;13513;42.700;23.124;2024-03-02T04:39:20;37.95;;;23.62;;
10717;SDS011;13513;42.700;23.124;2024-03-02T04:41:47;34.93;;;23.67;;
10717;SDS011;13513;42.700;23.124;2024-03-02T04:44:16;38.10;;;23.73;;
10717;SDS011;13513;42.700;23.124;2024-03-02T04:46:44;35.13;;;23.43;;
10717;SDS011;13513;42.700;23.124;2024-03-02T04:49:11;40.30;;;25.83;;
10717;SDS011;13513;42.700;23.124;2024-03-02T04:51:38;37.60;;;23.43;;
10717;SDS011;13513;42.700;23.124;2024-03-02T04:54:06;38.67;;;24.00;;
10717;SDS011;13513;42.700;23.124;2024-03-02T04:56:33;40.87;;;25.07;;
10717;SDS011;13513;42.700;23.124;2024-03-02T04:59:12;42.73;;;24.57;;
10717;SDS011;13513;42.700;23.124;2024-03-02T05:01:39;37.03;;;23.27;;
10717;SDS011;13513;42.700;23.124;2024-03-02T05:04:06;40.50;;;24.40;;
10717;SDS011;13513;42.700;23.124;2024-03-02T05:06:36;36.10;;;23.10;;
10717;SDS011;13513;42.700;23.124;2024-03-02T05:09:06;37.60;;;24.80;;
10717;SDS011;13513;42.700;23.124;2024-03-02T05:11:34;42.53;;;24.15;;
10717;SDS011;13513;42.700;23.124;2024-03-02T05:14:06;37.98;;;23.98;;
10717;SDS011;13513;42.700;23.124;2024-03-02T05:16:34;40.88;;;24.27;;
10717;SDS011;13513;42.700;23.124;2024-03-02T05:19:06;36.98;;;22.93;;
10717;SDS011;13513;42.700;23.124;2024-03-02T05:21:36;36.93;;;23.77;;
10717;SDS011;13513;42.700;23.124;2024-03-02T05:24:03;40.08;;;23.57;;
10717;SDS011;13513;42.700;23.124;2024-03-02T05:26:31;36.57;;;23.60;;
10717;SDS011;13513;42.700;23.124;2024-03-02T05:28:58;42.38;;;24.25;;
10717;SDS011;13513;42.700;23.124;2024-03-02T05:31:28;42.70;;;24.87;;
10717;SDS011;13513;42.700;23.124;2024-03-02T05:33:57;47.77;;;23.70;;
10717;SDS011;13513;42.700;23.124;2024-03-02T05:36:24;34.43;;;23.22;;
10717;SDS011;13513;42.700;23.124;2024-03-02T05:38:53;36.60;;;23.70;;
10717;SDS011;13513;42.700;23.124;2024-03-02T05:41:21;32.50;;;21.90;;
10717;SDS011;13513;42.700;23.124;2024-03-02T05:43:50;37.45;;;23.52;;
10717;SDS011;13513;42.700;23.124;2024-03-02T05:46:17;34.90;;;23.30;;
10717;SDS011;13513;42.700;23.124;2024-03-02T05:48:45;29.27;;;20.77;;
10717;SDS011;13513;42.700;23.124;2024-03-02T05:51:14;31.93;;;21.17;;
10717;SDS011;13513;42.700;23.124;2024-03-02T05:53:41;27.90;;;19.90;;
10717;SDS011;13513;42.700;23.124;2024-03-02T05:56:10;27.52;;;19.80;;
10717;SDS011;13513;42.700;23.124;2024-03-02T05:58:37;28.57;;;19.25;;
10717;SDS011;13513;42.700;23.124;2024-03-02T06:01:23;29.33;;;19.43;;
10717;SDS011;13513;42.700;23.124;2024-03-02T06:03:52;27.37;;;19.07;;
10717;SDS011;13513;42.700;23.124;2024-03-02T06:06:27;29.97;;;19.23;;
10717;SDS011;13513;42.700;23.124;2024-03-02T06:08:53;32.15;;;20.45;;
10717;SDS011;13513;42.700;23.124;2024-03-02T06:11:20;38.10;;;22.77;;
10717;SDS011;13513;42.700;23.124;2024-03-02T06:13:48;32.03;;;19.90;;
10717;SDS011;13513;42.700;23.124;2024-03-02T06:16:16;32.27;;;20.00;;
10717;SDS011;13513;42.700;23.124;2024-03-02T06:18:45;66.10;;;19.40;;
10717;SDS011;13513;42.700;23.124;2024-03-02T06:21:12;51.63;;;23.20;;
10717;SDS011;13513;42.700;23.124;2024-03-02T06:23:40;34.37;;;21.10;;
10717;SDS011;13513;42.700;23.124;2024-03-02T06:26:08;33.50;;;20.70;;
10717;SDS011;13513;42.700;23.124;2024-03-02T06:28:35;33.77;;;20.63;;
10717;SDS011;13513;42.700;23.124;2024-03-02T06:31:03;31.57;;;20.43;;
10717;SDS011;13513;42.700;23.124;2024-03-02T06:33:30;29.43;;;19.60;;
10717;SDS011;13513;42.700;23.124;2024-03-02T06:35:57;41.10;;;23.87;;
10717;SDS011;13513;42.700;23.124;2024-03-02T06:38:25;37.67;;;24.03;;
10717;SDS011;13513;42.700;23.124;2024-03-02T06:40:54;36.63;;;21.73;;
10717;SDS011;13513;42.700;23.124;2024-03-02T06:43:21;36.70;;;23.07;;
10717;SDS011;13513;42.700;23.124;2024-03-02T06:45:49;45.37;;;20.20;;
10717;SDS011;13513;42.700;23.124;2024-03-02T06:48:17;34.60;;;21.30;;
10717;SDS011;13513;42.700;23.124;2024-03-02T06:50:46;40.10;;;23.67;;
10717;SDS011;13513;42.700;23.124;2024-03-02T06:53:13;37.50;;;24.13;;
10717;SDS011;13513;42.700;23.124;2024-03-02T06:55:45;57.43;;;24.80;;
10717;SDS011;13513;42.700;23.124;2024-03-02T06:58:14;96.60;;;23.80;;
10717;SDS011;13513;42.700;23.124;2024-03-02T07:00:44;36.00;;;23.07;;
10717;SDS011;13513;42.700;23.124;2024-03-02T07:03:12;84.47;;;23.97;;
10717;SDS011;13513;42.700;23.124;2024-03-02T07:05:39;54.67;;;23.83;;
10717;SDS011;13513;42.700;23.124;2024-03-02T07:08:07;116.60;;;26.43;;
10717;SDS011;13513;42.700;23.124;2024-03-02T07:10:35;73.63;;;24.67;;
10717;SDS011;13513;42.700;23.124;2024-03-02T07:13:02;118.37;;;25.23;;
10717;SDS011;13513;42.700;23.124;2024-03-02T07:15:30;195.37;;;26.60;;
10717;SDS011;13513;42.700;23.124;2024-03-02T07:18:05;173.40;;;27.67;;
10717;SDS011;13513;42.700;23.124;2024-03-02T07:20:32;93.33;;;25.63;;
10717;SDS011;13513;42.700;23.124;2024-03-02T07:23:00;45.23;;;26.00;;
10717;SDS011;13513;42.700;23.124;2024-03-02T07:25:27;40.30;;;24.37;;
10717;SDS011;13513;42.700;23.124;2024-03-02T07:27:56;46.17;;;26.40;;
10717;SDS011;13513;42.700;23.124;2024-03-02T07:30:23;46.40;;;24.63;;
10717;SDS011;13513;42.700;23.124;2024-03-02T07:32:52;41.20;;;24.27;;
10717;SDS011;13513;42.700;23.124;2024-03-02T07:35:20;41.40;;;25.27;;
10717;SDS011;13513;42.700;23.124;2024-03-02T07:37:49;41.30;;;24.90;;
10717;SDS011;13513;42.700;23.124;2024-03-02T07:40:17;41.93;;;24.57;;
10717;SDS011;13513;42.700;23.124;2024-03-02T07:42:44;43.43;;;24.07;;
10717;SDS011;13513;42.700;23.124;2024-03-02T07:45:12;42.67;;;24.07;;
10717;SDS011;13513;42.700;23.124;2024-03-02T07:47:39;42.43;;;25.27;;
10717;SDS011;13513;42.700;23.124;2024-03-02T07:50:07;44.50;;;25.73;;
10717;SDS011;13513;42.700;23.124;2024-03-02T07:52:35;44.97;;;25.30;;
10717;SDS011;13513;42.700;23.124;2024-03-02T07:55:02;40.70;;;24.53;;
10717;SDS011;13513;42.700;23.124;2024-03-02T07:57:32;41.27;;;24.57;;
10717;SDS011;13513;42.700;23.124;2024-03-02T08:00:01;41.73;;;25.30;;
10717;SDS011;13513;42.700;23.124;2024-03-02T08:02:28;42.13;;;23.50;;
10717;SDS011;13513;42.700;23.124;2024-03-02T08:04:56;43.20;;;24.00;;
10717;SDS011;13513;42.700;23.124;2024-03-02T08:07:24;40.27;;;24.27;;
10717;SDS011;13513;42.700;23.124;2024-03-02T08:09:52;40.10;;;24.77;;
10717;SDS011;13513;42.700;23.124;2024-03-02T08:12:20;37.78;;;23.30;;
10717;SDS011;13513;42.700;23.124;2024-03-02T08:14:49;38.57;;;24.20;;
10717;SDS011;13513;42.700;23.124;2024-03-02T08:17:16;37.67;;;23.73;;
10717;SDS011;13513;42.700;23.124;2024-03-02T08:19:44;35.03;;;23.00;;
10717;SDS011;13513;42.700;23.124;2024-03-02T08:22:19;40.07;;;24.50;;
10717;SDS011;13513;42.700;23.124;2024-03-02T08:24:42;37.13;;;23.83;;
10717;SDS011;13513;42.700;23.124;2024-03-02T08:27:11;41.33;;;25.07;;
10717;SDS011;13513;42.700;23.124;2024-03-02T08:29:39;33.63;;;22.10;;
10717;SDS011;13513;42.700;23.124;2024-03-02T08:32:07;33.97;;;22.57;;
10717;SDS011;13513;42.700;23.124;2024-03-02T08:34:35;32.93;;;20.90;;
10717;SDS011;13513;42.700;23.124;2024-03-02T08:37:03;36.43;;;22.93;;
10717;SDS011;13513;42.700;23.124;2024-03-02T08:39:31;42.37;;;26.13;;
10717;SDS011;13513;42.700;23.124;2024-03-02T08:41:58;31.95;;;21.50;;
10717;SDS011;13513;42.700;23.124;2024-03-02T08:44:26;38.10;;;23.60;;
10717;SDS011;13513;42.700;23.124;2024-03-02T08:46:53;42.17;;;24.98;;
10717;SDS011;13513;42.700;23.124;2024-03-02T08:49:21;42.33;;;25.37;;
10717;SDS011;13513;42.700;23.124;2024-03-02T08:51:49;40.67;;;25.97;;
10717;SDS011;13513;42.700;23.124;2024-03-02T08:54:18;41.43;;;24.40;;
10717;SDS011;13513;42.700;23.124;2024-03-02T08:56:45;52.50;;;30.90;;
10717;SDS011;13513;42.700;23.124;2024-03-02T08:59:13;52.03;;;29.93;;
10717;SDS011;13513;42.700;23.124;2024-03-02T09:01:42;40.10;;;23.60;;
10717;SDS011;13513;42.700;23.124;2024-03-02T09:04:10;45.40;;;29.80;;
10717;SDS011;13513;42.700;23.124;2024-03-02T09:06:38;41.45;;;28.17;;
10717;SDS011;13513;42.700;23.124;2024-03-02T09:09:06;56.28;;;39.48;;
10717;SDS011;13513;42.700;23.124;2024-03-02T09:11:34;32.10;;;21.62;;
10717;SDS011;13513;42.700;23.124;2024-03-02T09:14:01;50.55;;;31.20;;
10717;SDS011;13513;42.700;23.124;2024-03-02T09:16:30;37.78;;;24.52;;
10717;SDS011;13513;42.700;23.124;2024-03-02T09:18:58;34.05;;;22.00;;
10717;SDS011;13513;42.700;23.124;2024-03-02T09:21:26;62.65;;;39.08;;
10717;SDS011;13513;42.700;23.124;2024-03-02T09:23:55;32.10;;;21.48;;
10717;SDS011;13513;42.700;23.124;2024-03-02T09:26:23;30.70;;;19.80;;
10717;SDS011;13513;42.700;23.124;2024-03-02T09:28:51;40.23;;;24.02;;
10717;SDS011;13513;42.700;23.124;2024-03-02T09:31:18;35.40;;;24.32;;
10717;SDS011;13513;42.700;23.124;2024-03-02T09:33:46;38.08;;;23.75;;
10717;SDS011;13513;42.700;23.124;2024-03-02T09:36:22;73.75;;;50.98;;
10717;SDS011;13513;42.700;23.124;2024-03-02T09:38:46;58.83;;;40.77;;
10717;SDS011;13513;42.700;23.124;2024-03-02T09:41:14;39.70;;;25.97;;
10717;SDS011;13513;42.700;23.124;2024-03-02T09:43:42;35.73;;;23.32;;
10717;SDS011;13513;42.700;23.124;2024-03-02T09:46:11;37.35;;;24.52;;
10717;SDS011;13513;42.700;23.124;2024-03-02T09:48:40;38.08;;;23.42;;
10717;SDS011;13513;42.700;23.124;2024-03-02T09:51:07;37.33;;;25.43;;
10717;SDS011;13513;42.700;23.124;2024-03-02T09:53:38;31.48;;;22.15;;
10717;SDS011;13513;42.700;23.124;2024-03-02T09:56:05;30.70;;;20.45;;
10717;SDS011;13513;42.700;23.124;2024-03-02T09:58:34;32.40;;;21.45;;
10717;SDS011;13513;42.700;23.124;2024-03-02T10:01:05;33.85;;;20.05;;
10717;SDS011;13513;42.700;23.124;2024-03-02T10:03:41;33.20;;;20.65;;
10717;SDS011;13513;42.700;23.124;2024-03-02T10:08:51;27.82;;;18.95;;
10717;SDS011;13513;42.700;23.124;2024-03-02T10:11:29;28.57;;;19.40;;
10717;SDS011;13513;42.700;23.124;2024-03-02T10:14:12;30.55;;;20.40;;
10717;SDS011;13513;42.700;23.124;2024-03-02T10:16:41;31.52;;;18.73;;
10717;SDS011;13513;42.700;23.124;2024-03-02T10:19:16;31.45;;;19.20;;
10717;SDS011;13513;42.700;23.124;2024-03-02T10:21:50;31.05;;;20.23;;
10717;SDS011;13513;42.700;23.124;2024-03-02T10:24:19;33.08;;;21.75;;
10717;SDS011;13513;42.700;23.124;2024-03-02T10:26:48;31.97;;;19.73;;
10717;SDS011;13513;42.700;23.124;2024-03-02T10:29:16;33.02;;;21.33;;
10717;SDS011;13513;42.700;23.124;2024-03-02T10:31:45;30.68;;;20.55;;
10717;SDS011;13513;42.700;23.124;2024-03-02T10:34:13;34.25;;;23.32;;
10717;SDS011;13513;42.700;23.124;2024-03-02T10:36:43;35.05;;;21.90;;
10717;SDS011;13513;42.700;23.124;2024-03-02T10:39:14;30.57;;;21.80;;
10717;SDS011;13513;42.700;23.124;2024-03-02T10:41:41;30.68;;;20.50;;
10717;SDS011;13513;42.700;23.124;2024-03-02T10:44:12;30.15;;;20.48;;
10717;SDS011;13513;42.700;23.124;2024-03-02T10:46:40;31.05;;;20.85;;
10717;SDS011;13513;42.700;23.124;2024-03-02T10:49:08;27.10;;;18.95;;
10717;SDS011;13513;42.700;23.124;2024-03-02T10:51:35;28.90;;;18.85;;
10717;SDS011;13513;42.700;23.124;2024-03-02T10:54:03;29.32;;;18.85;;
10717;SDS011;13513;42.700;23.124;2024-03-02T10:56:38;25.60;;;17.67;;
10717;SDS011;13513;42.700;23.124;2024-03-02T11:01:56;29.15;;;19.35;;
10717;SDS011;13513;42.700;23.124;2024-03-02T11:04:27;31.07;;;22.13;;
10717;SDS011;13513;42.700;23.124;2024-03-02T11:07:07;30.45;;;19.92;;
10717;SDS011;13513;42.700;23.124;2024-03-02T11:09:28;31.80;;;21.05;;
10717;SDS011;13513;42.700;23.124;2024-03-02T11:12:00;29.75;;;20.80;;
10717;SDS011;13513;42.700;23.124;2024-03-02T11:14:41;29.05;;;19.77;;
10717;SDS011;13513;42.700;23.124;2024-03-02T11:17:09;27.00;;;18.37;;
10717;SDS011;13513;42.700;23.124;2024-03-02T11:19:41;24.05;;;17.27;;
10717;SDS011;13513;42.700;23.124;2024-03-02T11:22:11;25.70;;;18.27;;
10717;SDS011;13513;42.700;23.124;2024-03-02T11:24:40;26.70;;;18.15;;
10717;SDS011;13513;42.700;23.124;2024-03-02T11:27:10;27.10;;;18.55;;
10717;SDS011;13513;42.700;23.124;2024-03-02T11:34:44;30.30;;;18.90;;
10717;SDS011;13513;42.700;23.124;2024-03-02T11:37:13;30.37;;;19.27;;
10717;SDS011;13513;42.700;23.124;2024-03-02T11:39:43;28.92;;;19.90;;
10717;SDS011;13513;42.700;23.124;2024-03-02T11:42:12;29.05;;;19.82;;
10717;SDS011;13513;42.700;23.124;2024-03-02T11:44:45;32.93;;;21.40;;
10717;SDS011;13513;42.700;23.124;2024-03-02T11:47:15;27.98;;;18.70;;
10717;SDS011;13513;42.700;23.124;2024-03-02T11:49:53;24.52;;;16.75;;
10717;SDS011;13513;42.700;23.124;2024-03-02T11:52:14;24.57;;;16.52;;
10717;SDS011;13513;42.700;23.124;2024-03-02T11:54:44;24.50;;;16.07;;
10717;SDS011;13513;42.700;23.124;2024-03-02T11:57:13;24.30;;;17.40;;
10717;SDS011;13513;42.700;23.124;2024-03-02T11:59:43;22.30;;;15.70;;
10717;SDS011;13513;42.700;23.124;2024-03-02T12:02:14;22.48;;;15.03;;
10717;SDS011;13513;42.700;23.124;2024-03-02T12:04:44;21.05;;;14.80;;
10717;SDS011;13513;42.700;23.124;2024-03-02T12:07:20;21.40;;;15.60;;
10717;SDS011;13513;42.700;23.124;2024-03-02T12:09:49;23.35;;;15.90;;
10717;SDS011;13513;42.700;23.124;2024-03-02T12:12:28;24.83;;;16.17;;
10717;SDS011;13513;42.700;23.124;2024-03-02T12:14:56;25.08;;;16.52;;
10717;SDS011;13513;42.700;23.124;2024-03-02T12:17:25;29.05;;;19.73;;
10717;SDS011;13513;42.700;23.124;2024-03-02T12:19:54;22.73;;;16.32;;
10717;SDS011;13513;42.700;23.124;2024-03-02T12:22:23;21.15;;;15.08;;
10717;SDS011;13513;42.700;23.124;2024-03-02T12:24:51;22.52;;;15.88;;
10717;SDS011;13513;42.700;23.124;2024-03-02T12:27:18;25.92;;;17.17;;
10717;SDS011;13513;42.700;23.124;2024-03-02T12:29:46;25.00;;;16.87;;
10717;SDS011;13513;42.700;23.124;2024-03-02T12:32:17;26.07;;;17.42;;
10717;SDS011;13513;42.700;23.124;2024-03-02T12:34:46;28.90;;;19.07;;
10717;SDS011;13513;42.700;23.124;2024-03-02T12:37:14;33.50;;;22.07;;
10717;SDS011;13513;42.700;23.124;2024-03-02T12:39:44;27.70;;;19.48;;
10717;SDS011;13513;42.700;23.124;2024-03-02T12:42:13;28.77;;;19.30;;
10717;SDS011;13513;42.700;23.124;2024-03-02T12:44:41;28.63;;;19.80;;
10717;SDS011;13513;42.700;23.124;2024-03-02T12:47:10;27.67;;;18.57;;
10717;SDS011;13513;42.700;23.124;2024-03-02T12:49:40;28.10;;;18.85;;
10717;SDS011;13513;42.700;23.124;2024-03-02T12:52:08;32.00;;;21.15;;
10717;SDS011;13513;42.700;23.124;2024-03-02T12:54:37;28.77;;;18.32;;
10717;SDS011;13513;42.700;23.124;2024-03-02T12:57:04;31.73;;;19.60;;
10717;SDS011;13513;42.700;23.124;2024-03-02T12:59:32;29.42;;;18.57;;
10717;SDS011;13513;42.700;23.124;2024-03-02T13:02:00;25.95;;;17.15;;
10717;SDS011;13513;42.700;23.124;2024-03-02T13:04:28;29.95;;;18.70;;
10717;SDS011;13513;42.700;23.124;2024-03-02T13:06:56;28.87;;;18.57;;
10717;SDS011;13513;42.700;23.124;2024-03-02T13:09:26;29.35;;;18.85;;
10717;SDS011;13513;42.700;23.124;2024-03-02T13:11:53;24.57;;;17.77;;
10717;SDS011;13513;42.700;23.124;2024-03-02T13:14:22;25.43;;;17.82;;
10717;SDS011;13513;42.700;23.124;2024-03-02T13:16:51;25.02;;;17.42;;
10717;SDS011;13513;42.700;23.124;2024-03-02T13:19:18;33.55;;;20.57;;
10717;SDS011;13513;42.700;23.124;2024-03-02T13:21:46;35.53;;;21.70;;
10717;SDS011;13513;42.700;23.124;2024-03-02T13:24:15;31.23;;;20.10;;
10717;SDS011;13513;42.700;23.124;2024-03-02T13:26:43;29.37;;;19.17;;
10717;SDS011;13513;42.700;23.124;2024-03-02T13:29:10;29.57;;;19.02;;
10717;SDS011;13513;42.700;23.124;2024-03-02T13:31:38;28.97;;;18.83;;
10717;SDS011;13513;42.700;23.124;2024-03-02T13:34:06;30.43;;;19.20;;
10717;SDS011;13513;42.700;23.124;2024-03-02T13:36:34;30.50;;;20.15;;
10717;SDS011;13513;42.700;23.124;2024-03-02T13:39:02;32.25;;;20.60;;
10717;SDS011;13513;42.700;23.124;2024-03-02T13:41:31;32.25;;;19.80;;
10717;SDS011;13513;42.700;23.124;2024-03-02T13:43:59;30.88;;;20.27;;
10717;SDS011;13513;42.700;23.124;2024-03-02T13:46:27;31.37;;;19.27;;
10717;SDS011;13513;42.700;23.124;2024-03-02T13:48:56;31.42;;;19.67;;
10717;SDS011;13513;42.700;23.124;2024-03-02T13:51:24;36.98;;;22.85;;
10717;SDS011;13513;42.700;23.124;2024-03-02T13:53:53;30.10;;;19.15;;
10717;SDS011;13513;42.700;23.124;2024-03-02T13:56:20;27.52;;;19.20;;
10717;SDS011;13513;42.700;23.124;2024-03-02T13:58:48;30.97;;;19.77;;
10717;SDS011;13513;42.700;23.124;2024-03-02T14:01:15;33.75;;;21.40;;
10717;SDS011;13513;42.700;23.124;2024-03-02T14:03:43;34.40;;;22.47;;
10717;SDS011;13513;42.700;23.124;2024-03-02T14:06:12;29.57;;;18.43;;
10717;SDS011;13513;42.700;23.124;2024-03-02T14:08:39;37.20;;;20.47;;
10717;SDS011;13513;42.700;23.124;2024-03-02T14:11:08;29.95;;;18.77;;
10717;SDS011;13513;42.700;23.124;2024-03-02T14:13:38;32.63;;;19.73;;
10717;SDS011;13513;42.700;23.124;2024-03-02T14:16:07;30.73;;;19.37;;
10717;SDS011;13513;42.700;23.124;2024-03-02T14:18:34;33.87;;;20.53;;
10717;SDS011;13513;42.700;23.124;2024-03-02T14:21:04;33.73;;;17.87;;
10717;SDS011;13513;42.700;23.124;2024-03-02T14:23:31;33.13;;;19.83;;
10717;SDS011;13513;42.700;23.124;2024-03-02T14:25:59;33.13;;;21.90;;
10717;SDS011;13513;42.700;23.124;2024-03-02T14:28:26;35.90;;;21.13;;
10717;SDS011;13513;42.700;23.124;2024-03-02T14:30:54;30.37;;;18.97;;